sensor_id;sensor_type;location;lat;lon;timestamp;temperature;humidity
74513;DHT22;62992;52.052;8.550;2023-04-01T00:00:31;9.30;99.90
74513;DHT22;62992;52.052;8.550;2023-04-01T00:03:15;9.30;99.90
74513;DHT22;62992;52.052;8.550;2023-04-01T00:06:00;9.30;99.90
74513;DHT22;62992;52.052;8.550;2023-04-01T00:08:45;9.40;99.90
74513;DHT22;62992;52.052;8.550;2023-04-01T00:11:29;9.30;99.90
74513;DHT22;62992;52.052;8.550;2023-04-01T00:14:14;9.30;99.90
74513;DHT22;62992;52.052;8.550;2023-04-01T00:16:58;9.30;99.90
74513;DHT22;62992;52.052;8.550;2023-04-01T00:19:42;9.30;99.90
74513;DHT22;62992;52.052;8.550;2023-04-01T00:22:27;9.30;99.90
74513;DHT22;62992;52.052;8.550;2023-04-01T00:25:12;9.30;99.90
74513;DHT22;62992;52.052;8.550;2023-04-01T00:27:57;9.30;99.90
74513;DHT22;62992;52.052;8.550;2023-04-01T00:30:41;9.20;99.90
74513;DHT22;62992;52.052;8.550;2023-04-01T00:33:25;9.30;99.90
74513;DHT22;62992;52.052;8.550;2023-04-01T00:36:14;9.30;99.90
74513;DHT22;62992;52.052;8.550;2023-04-01T00:38:58;9.30;99.90
74513;DHT22;62992;52.052;8.550;2023-04-01T00:41:43;9.20;99.90
74513;DHT22;62992;52.052;8.550;2023-04-01T00:44:30;9.20;99.90
74513;DHT22;62992;52.052;8.550;2023-04-01T00:47:14;9.20;99.90
74513;DHT22;62992;52.052;8.550;2023-04-01T00:49:59;9.20;99.90
74513;DHT22;62992;52.052;8.550;2023-04-01T00:52:43;9.20;99.90
74513;DHT22;62992;52.052;8.550;2023-04-01T00:55:32;9.20;99.90
74513;DHT22;62992;52.052;8.550;2023-04-01T00:58:21;9.20;99.90
74513;DHT22;62992;52.052;8.550;2023-04-01T01:01:06;9.20;99.90
74513;DHT22;62992;52.052;8.550;2023-04-01T01:03:51;9.20;99.90
74513;DHT22;62992;52.052;8.550;2023-04-01T01:06:50;9.20;99.90
74513;DHT22;62992;52.052;8.550;2023-04-01T01:15:56;9.10;99.90
74513;DHT22;62992;52.052;8.550;2023-04-01T01:18:53;9.20;99.90
74513;DHT22;62992;52.052;8.550;2023-04-01T01:31:34;9.20;99.90
74513;DHT22;62992;52.052;8.550;2023-04-01T01:37:43;9.20;99.90
74513;DHT22;62992;52.052;8.550;2023-04-01T01:40:30;9.30;99.90
74513;DHT22;62992;52.052;8.550;2023-04-01T01:43:19;9.20;99.90
74513;DHT22;62992;52.052;8.550;2023-04-01T01:46:09;9.20;99.90
74513;DHT22;62992;52.052;8.550;2023-04-01T01:48:55;9.30;99.90
74513;DHT22;62992;52.052;8.550;2023-04-01T01:51:40;9.30;99.90
74513;DHT22;62992;52.052;8.550;2023-04-01T01:54:24;9.30;99.90
74513;DHT22;62992;52.052;8.550;2023-04-01T01:57:09;9.30;99.90
74513;DHT22;62992;52.052;8.550;2023-04-01T01:59:55;9.20;99.90
74513;DHT22;62992;52.052;8.550;2023-04-01T02:02:45;9.30;99.90
74513;DHT22;62992;52.052;8.550;2023-04-01T02:05:30;9.20;99.90
74513;DHT22;62992;52.052;8.550;2023-04-01T02:08:31;9.20;99.90
74513;DHT22;62992;52.052;8.550;2023-04-01T02:11:20;9.20;99.90
74513;DHT22;62992;52.052;8.550;2023-04-01T02:14:11;9.20;99.90
74513;DHT22;62992;52.052;8.550;2023-04-01T02:17:02;9.10;99.90
74513;DHT22;62992;52.052;8.550;2023-04-01T02:19:56;9.10;99.90
74513;DHT22;62992;52.052;8.550;2023-04-01T02:22:51;9.10;99.90
74513;DHT22;62992;52.052;8.550;2023-04-01T02:25:37;9.10;99.90
74513;DHT22;62992;52.052;8.550;2023-04-01T02:28:23;9.10;99.90
74513;DHT22;62992;52.052;8.550;2023-04-01T02:31:12;9.00;99.90
74513;DHT22;62992;52.052;8.550;2023-04-01T02:33:58;9.00;99.90
74513;DHT22;62992;52.052;8.550;2023-04-01T02:36:43;9.00;99.90
74513;DHT22;62992;52.052;8.550;2023-04-01T02:39:27;9.00;99.90
74513;DHT22;62992;52.052;8.550;2023-04-01T02:42:13;9.10;99.90
74513;DHT22;62992;52.052;8.550;2023-04-01T02:44:58;9.10;99.90
74513;DHT22;62992;52.052;8.550;2023-04-01T02:47:43;9.00;99.90
74513;DHT22;62992;52.052;8.550;2023-04-01T02:50:26;9.10;99.90
74513;DHT22;62992;52.052;8.550;2023-04-01T02:53:11;9.10;99.90
74513;DHT22;62992;52.052;8.550;2023-04-01T02:55:55;9.00;99.90
74513;DHT22;62992;52.052;8.550;2023-04-01T02:58:40;9.00;99.90
74513;DHT22;62992;52.052;8.550;2023-04-01T03:01:23;9.10;99.90
74513;DHT22;62992;52.052;8.550;2023-04-01T03:04:08;9.10;99.90
74513;DHT22;62992;52.052;8.550;2023-04-01T03:06:52;9.10;99.90
74513;DHT22;62992;52.052;8.550;2023-04-01T03:09:37;9.10;99.90
74513;DHT22;62992;52.052;8.550;2023-04-01T03:12:21;9.10;99.90
74513;DHT22;62992;52.052;8.550;2023-04-01T03:15:06;9.10;99.90
74513;DHT22;62992;52.052;8.550;2023-04-01T03:17:50;9.00;99.90
74513;DHT22;62992;52.052;8.550;2023-04-01T03:20:35;9.00;99.90
74513;DHT22;62992;52.052;8.550;2023-04-01T03:23:19;9.10;99.90
74513;DHT22;62992;52.052;8.550;2023-04-01T03:26:05;9.10;99.90
74513;DHT22;62992;52.052;8.550;2023-04-01T03:28:49;9.10;99.90
74513;DHT22;62992;52.052;8.550;2023-04-01T03:31:33;9.00;99.90
74513;DHT22;62992;52.052;8.550;2023-04-01T03:34:18;9.00;99.90
74513;DHT22;62992;52.052;8.550;2023-04-01T03:37:02;9.10;99.90
74513;DHT22;62992;52.052;8.550;2023-04-01T03:39:46;9.10;99.90
74513;DHT22;62992;52.052;8.550;2023-04-01T03:42:30;9.10;99.90
74513;DHT22;62992;52.052;8.550;2023-04-01T03:45:15;9.10;99.90
74513;DHT22;62992;52.052;8.550;2023-04-01T03:47:59;9.10;99.90
74513;DHT22;62992;52.052;8.550;2023-04-01T03:50:44;9.10;99.90
74513;DHT22;62992;52.052;8.550;2023-04-01T03:53:29;9.00;99.90
74513;DHT22;62992;52.052;8.550;2023-04-01T03:56:13;9.00;99.90
74513;DHT22;62992;52.052;8.550;2023-04-01T03:58:57;9.00;99.90
74513;DHT22;62992;52.052;8.550;2023-04-01T04:01:41;9.00;99.90
74513;DHT22;62992;52.052;8.550;2023-04-01T04:04:26;9.00;99.90
74513;DHT22;62992;52.052;8.550;2023-04-01T04:07:10;9.00;99.90
74513;DHT22;62992;52.052;8.550;2023-04-01T04:09:54;9.00;99.90
74513;DHT22;62992;52.052;8.550;2023-04-01T04:12:38;8.90;99.90
74513;DHT22;62992;52.052;8.550;2023-04-01T04:15:24;9.00;99.90
74513;DHT22;62992;52.052;8.550;2023-04-01T04:18:08;8.90;99.90
74513;DHT22;62992;52.052;8.550;2023-04-01T04:20:52;8.90;99.90
74513;DHT22;62992;52.052;8.550;2023-04-01T04:23:36;8.90;99.90
74513;DHT22;62992;52.052;8.550;2023-04-01T04:26:21;8.90;99.90
74513;DHT22;62992;52.052;8.550;2023-04-01T04:29:05;8.90;99.90
74513;DHT22;62992;52.052;8.550;2023-04-01T04:31:49;8.90;99.90
74513;DHT22;62992;52.052;8.550;2023-04-01T04:34:33;8.90;99.90
74513;DHT22;62992;52.052;8.550;2023-04-01T04:37:17;8.90;99.90
74513;DHT22;62992;52.052;8.550;2023-04-01T04:40:01;8.90;99.90
74513;DHT22;62992;52.052;8.550;2023-04-01T04:42:45;8.90;99.90
74513;DHT22;62992;52.052;8.550;2023-04-01T04:45:30;8.90;99.90
74513;DHT22;62992;52.052;8.550;2023-04-01T04:48:15;8.90;99.90
74513;DHT22;62992;52.052;8.550;2023-04-01T04:51:04;8.90;99.90
74513;DHT22;62992;52.052;8.550;2023-04-01T04:53:48;8.90;99.90
74513;DHT22;62992;52.052;8.550;2023-04-01T04:56:33;8.90;99.90
74513;DHT22;62992;52.052;8.550;2023-04-01T04:59:17;8.90;99.90
74513;DHT22;62992;52.052;8.550;2023-04-01T05:02:01;8.80;99.90
74513;DHT22;62992;52.052;8.550;2023-04-01T05:04:45;8.80;99.90
74513;DHT22;62992;52.052;8.550;2023-04-01T05:07:29;8.80;99.90
74513;DHT22;62992;52.052;8.550;2023-04-01T05:10:13;8.80;99.90
74513;DHT22;62992;52.052;8.550;2023-04-01T05:12:58;8.80;99.90
74513;DHT22;62992;52.052;8.550;2023-04-01T05:15:42;8.80;99.90
74513;DHT22;62992;52.052;8.550;2023-04-01T05:18:26;8.80;99.90
74513;DHT22;62992;52.052;8.550;2023-04-01T05:21:13;8.80;99.90
74513;DHT22;62992;52.052;8.550;2023-04-01T05:23:57;8.80;99.90
74513;DHT22;62992;52.052;8.550;2023-04-01T05:26:41;8.80;99.90
74513;DHT22;62992;52.052;8.550;2023-04-01T05:29:26;8.70;99.90
74513;DHT22;62992;52.052;8.550;2023-04-01T05:32:10;8.70;99.90
74513;DHT22;62992;52.052;8.550;2023-04-01T05:34:54;8.70;99.90
74513;DHT22;62992;52.052;8.550;2023-04-01T05:37:38;8.70;99.90
74513;DHT22;62992;52.052;8.550;2023-04-01T05:40:22;8.70;99.90
74513;DHT22;62992;52.052;8.550;2023-04-01T05:43:06;8.70;99.90
74513;DHT22;62992;52.052;8.550;2023-04-01T05:45:51;8.80;99.90
74513;DHT22;62992;52.052;8.550;2023-04-01T05:48:35;8.80;99.90
74513;DHT22;62992;52.052;8.550;2023-04-01T05:51:20;8.70;99.90
74513;DHT22;62992;52.052;8.550;2023-04-01T05:54:05;8.70;99.90
74513;DHT22;62992;52.052;8.550;2023-04-01T05:56:49;8.70;99.90
74513;DHT22;62992;52.052;8.550;2023-04-01T05:59:33;8.70;99.90
74513;DHT22;62992;52.052;8.550;2023-04-01T06:02:18;8.70;99.90
74513;DHT22;62992;52.052;8.550;2023-04-01T06:05:25;8.70;99.90
74513;DHT22;62992;52.052;8.550;2023-04-01T06:08:14;8.70;99.90
74513;DHT22;62992;52.052;8.550;2023-04-01T06:19:55;8.80;99.90
74513;DHT22;62992;52.052;8.550;2023-04-01T06:28:58;8.80;99.90
74513;DHT22;62992;52.052;8.550;2023-04-01T06:50:07;9.20;99.90
74513;DHT22;62992;52.052;8.550;2023-04-01T06:53:17;9.20;99.90
74513;DHT22;62992;52.052;8.550;2023-04-01T06:56:06;9.20;99.90
74513;DHT22;62992;52.052;8.550;2023-04-01T06:59:01;9.10;99.90
74513;DHT22;62992;52.052;8.550;2023-04-01T07:01:55;9.10;99.90
74513;DHT22;62992;52.052;8.550;2023-04-01T07:04:44;9.10;99.90
74513;DHT22;62992;52.052;8.550;2023-04-01T07:07:43;9.00;99.90
74513;DHT22;62992;52.052;8.550;2023-04-01T07:16:51;8.90;99.90
74513;DHT22;62992;52.052;8.550;2023-04-01T07:19:42;9.00;99.90
74513;DHT22;62992;52.052;8.550;2023-04-01T07:22:44;9.00;99.90
74513;DHT22;62992;52.052;8.550;2023-04-01T07:25:34;8.90;99.90
74513;DHT22;62992;52.052;8.550;2023-04-01T07:28:19;8.90;99.90
74513;DHT22;62992;52.052;8.550;2023-04-01T07:31:44;8.90;99.90
74513;DHT22;62992;52.052;8.550;2023-04-01T07:34:28;8.90;99.90
74513;DHT22;62992;52.052;8.550;2023-04-01T07:37:37;8.80;99.90
74513;DHT22;62992;52.052;8.550;2023-04-01T07:40:26;8.90;99.90
74513;DHT22;62992;52.052;8.550;2023-04-01T07:46:24;8.90;99.90
74513;DHT22;62992;52.052;8.550;2023-04-01T07:49:20;9.00;99.90
74513;DHT22;62992;52.052;8.550;2023-04-01T07:52:08;9.00;99.90
74513;DHT22;62992;52.052;8.550;2023-04-01T07:55:07;9.10;99.90
74513;DHT22;62992;52.052;8.550;2023-04-01T07:58:15;9.20;99.90
74513;DHT22;62992;52.052;8.550;2023-04-01T08:04:48;9.20;99.90
74513;DHT22;62992;52.052;8.550;2023-04-01T08:11:21;9.30;99.90
74513;DHT22;62992;52.052;8.550;2023-04-01T08:14:26;9.40;99.90
74513;DHT22;62992;52.052;8.550;2023-04-01T08:26:16;9.40;99.90
74513;DHT22;62992;52.052;8.550;2023-04-01T08:32:07;9.60;99.90
74513;DHT22;62992;52.052;8.550;2023-04-01T08:38:06;9.70;99.90
74513;DHT22;62992;52.052;8.550;2023-04-01T08:44:24;9.90;99.90
74513;DHT22;62992;52.052;8.550;2023-04-01T08:59:21;10.60;99.90
74513;DHT22;62992;52.052;8.550;2023-04-01T09:18:48;10.70;99.90
74513;DHT22;62992;52.052;8.550;2023-04-01T09:21:51;10.50;99.90
74513;DHT22;62992;52.052;8.550;2023-04-01T09:28:20;11.00;99.90
74513;DHT22;62992;52.052;8.550;2023-04-01T09:40:48;11.10;99.90
74513;DHT22;62992;52.052;8.550;2023-04-01T09:47:00;11.00;99.90
74513;DHT22;62992;52.052;8.550;2023-04-01T09:59:51;10.80;99.90
74513;DHT22;62992;52.052;8.550;2023-04-01T10:18:36;10.30;99.90
74513;DHT22;62992;52.052;8.550;2023-04-01T10:21:59;10.40;99.90
74513;DHT22;62992;52.052;8.550;2023-04-01T10:28:17;10.50;99.90
74513;DHT22;62992;52.052;8.550;2023-04-01T11:24:37;11.20;99.90
74513;DHT22;62992;52.052;8.550;2023-04-01T11:27:38;11.40;99.90
74513;DHT22;62992;52.052;8.550;2023-04-01T11:30:47;11.70;99.90
74513;DHT22;62992;52.052;8.550;2023-04-01T11:36:50;11.70;99.90
74513;DHT22;62992;52.052;8.550;2023-04-01T11:42:49;11.50;99.90
74513;DHT22;62992;52.052;8.550;2023-04-01T12:09:49;11.70;99.90
74513;DHT22;62992;52.052;8.550;2023-04-01T12:12:54;11.70;99.90
74513;DHT22;62992;52.052;8.550;2023-04-01T12:15:59;11.60;99.90
74513;DHT22;62992;52.052;8.550;2023-04-01T12:18:57;11.70;99.90
74513;DHT22;62992;52.052;8.550;2023-04-01T12:30:39;12.00;99.90
74513;DHT22;62992;52.052;8.550;2023-04-01T12:33:47;12.10;99.90
74513;DHT22;62992;52.052;8.550;2023-04-01T12:39:57;11.90;99.90
74513;DHT22;62992;52.052;8.550;2023-04-01T12:55:52;11.70;99.90
74513;DHT22;62992;52.052;8.550;2023-04-01T13:08:23;11.60;99.90
74513;DHT22;62992;52.052;8.550;2023-04-01T13:17:31;11.60;99.90
74513;DHT22;62992;52.052;8.550;2023-04-01T13:26:27;11.40;99.90
74513;DHT22;62992;52.052;8.550;2023-04-01T13:29:56;11.50;99.90
74513;DHT22;62992;52.052;8.550;2023-04-01T13:32:42;11.40;99.90
74513;DHT22;62992;52.052;8.550;2023-04-01T13:35:37;11.40;99.90
74513;DHT22;62992;52.052;8.550;2023-04-01T13:44:40;11.50;99.90
74513;DHT22;62992;52.052;8.550;2023-04-01T13:53:50;11.50;99.90
74513;DHT22;62992;52.052;8.550;2023-04-01T13:56:41;11.40;99.90
74513;DHT22;62992;52.052;8.550;2023-04-01T14:06:20;11.70;99.90
74513;DHT22;62992;52.052;8.550;2023-04-01T14:09:35;11.60;99.90
74513;DHT22;62992;52.052;8.550;2023-04-01T14:15:26;11.40;99.90
74513;DHT22;62992;52.052;8.550;2023-04-01T14:18:37;11.30;99.90
74513;DHT22;62992;52.052;8.550;2023-04-01T14:37:29;11.30;99.90
74513;DHT22;62992;52.052;8.550;2023-04-01T14:47:04;11.30;99.90
74513;DHT22;62992;52.052;8.550;2023-04-01T14:49:54;11.20;99.90
74513;DHT22;62992;52.052;8.550;2023-04-01T14:56:08;11.20;99.90
74513;DHT22;62992;52.052;8.550;2023-04-01T14:58:57;11.00;99.90
74513;DHT22;62992;52.052;8.550;2023-04-01T15:01:57;11.00;99.90
74513;DHT22;62992;52.052;8.550;2023-04-01T15:08:28;11.00;99.90
74513;DHT22;62992;52.052;8.550;2023-04-01T15:11:21;11.00;99.90
74513;DHT22;62992;52.052;8.550;2023-04-01T15:14:19;11.00;99.90
74513;DHT22;62992;52.052;8.550;2023-04-01T15:17:27;11.00;99.90
74513;DHT22;62992;52.052;8.550;2023-04-01T15:20:33;11.00;99.90
74513;DHT22;62992;52.052;8.550;2023-04-01T15:26:30;10.90;99.90
74513;DHT22;62992;52.052;8.550;2023-04-01T15:29:35;11.00;99.90
74513;DHT22;62992;52.052;8.550;2023-04-01T15:50:48;10.90;99.90
74513;DHT22;62992;52.052;8.550;2023-04-01T15:56:51;10.90;99.90
74513;DHT22;62992;52.052;8.550;2023-04-01T16:12:18;10.60;99.90
74513;DHT22;62992;52.052;8.550;2023-04-01T16:20:55;10.60;99.90
74513;DHT22;62992;52.052;8.550;2023-04-01T16:23:51;10.50;99.90
74513;DHT22;62992;52.052;8.550;2023-04-01T16:26:47;10.50;99.90
74513;DHT22;62992;52.052;8.550;2023-04-01T16:32:57;10.50;99.90
74513;DHT22;62992;52.052;8.550;2023-04-01T16:35:47;10.50;99.90
74513;DHT22;62992;52.052;8.550;2023-04-01T16:41:35;10.50;99.90
74513;DHT22;62992;52.052;8.550;2023-04-01T16:44:26;10.50;99.90
74513;DHT22;62992;52.052;8.550;2023-04-01T16:47:15;10.40;99.90
74513;DHT22;62992;52.052;8.550;2023-04-01T16:50:24;10.50;99.90
74513;DHT22;62992;52.052;8.550;2023-04-01T16:56:04;10.50;99.90
74513;DHT22;62992;52.052;8.550;2023-04-01T17:05:13;10.40;99.90
74513;DHT22;62992;52.052;8.550;2023-04-01T17:17:16;9.90;99.90
74513;DHT22;62992;52.052;8.550;2023-04-01T17:23:27;9.70;99.90
74513;DHT22;62992;52.052;8.550;2023-04-01T17:29:29;9.50;99.90
74513;DHT22;62992;52.052;8.550;2023-04-01T17:35:42;9.40;99.90
74513;DHT22;62992;52.052;8.550;2023-04-01T17:38:41;9.30;99.90
74513;DHT22;62992;52.052;8.550;2023-04-01T17:41:34;9.40;99.90
74513;DHT22;62992;52.052;8.550;2023-04-01T17:44:32;9.30;99.90
74513;DHT22;62992;52.052;8.550;2023-04-01T17:50:28;9.20;99.90
74513;DHT22;62992;52.052;8.550;2023-04-01T18:05:57;9.00;99.90
74513;DHT22;62992;52.052;8.550;2023-04-01T18:21:48;8.80;99.90
74513;DHT22;62992;52.052;8.550;2023-04-01T18:24:42;8.70;99.90
74513;DHT22;62992;52.052;8.550;2023-04-01T18:27:41;8.70;99.90
74513;DHT22;62992;52.052;8.550;2023-04-01T18:30:29;8.60;99.90
74513;DHT22;62992;52.052;8.550;2023-04-01T18:39:38;8.40;99.90
74513;DHT22;62992;52.052;8.550;2023-04-01T18:42:46;8.40;99.90
74513;DHT22;62992;52.052;8.550;2023-04-01T18:45:49;8.30;99.90
74513;DHT22;62992;52.052;8.550;2023-04-01T18:51:54;8.30;99.90
74513;DHT22;62992;52.052;8.550;2023-04-01T18:55:46;8.20;99.90
74513;DHT22;62992;52.052;8.550;2023-04-01T19:01:12;8.10;99.90
74513;DHT22;62992;52.052;8.550;2023-04-01T19:15:57;8.00;99.90
74513;DHT22;62992;52.052;8.550;2023-04-01T19:18:58;7.90;99.90
74513;DHT22;62992;52.052;8.550;2023-04-01T19:37:09;7.70;99.90
74513;DHT22;62992;52.052;8.550;2023-04-01T19:43:33;7.60;99.90
74513;DHT22;62992;52.052;8.550;2023-04-01T19:52:35;7.40;99.90
74513;DHT22;62992;52.052;8.550;2023-04-01T19:56:22;7.40;99.90
74513;DHT22;62992;52.052;8.550;2023-04-01T20:04:56;7.20;99.90
74513;DHT22;62992;52.052;8.550;2023-04-01T20:07:52;7.20;99.90
74513;DHT22;62992;52.052;8.550;2023-04-01T20:20:14;7.00;99.90
74513;DHT22;62992;52.052;8.550;2023-04-01T20:23:24;7.00;99.90
74513;DHT22;62992;52.052;8.550;2023-04-01T20:26:14;7.20;99.90
74513;DHT22;62992;52.052;8.550;2023-04-01T20:47:51;6.90;99.90
74513;DHT22;62992;52.052;8.550;2023-04-01T20:50:52;6.90;99.90
74513;DHT22;62992;52.052;8.550;2023-04-01T21:52:44;6.10;99.90
74513;DHT22;62992;52.052;8.550;2023-04-01T22:02:05;6.00;99.90
74513;DHT22;62992;52.052;8.550;2023-04-01T22:05:25;6.00;99.90
74513;DHT22;62992;52.052;8.550;2023-04-01T22:17:20;5.80;99.90
74513;DHT22;62992;52.052;8.550;2023-04-01T22:20:17;5.80;99.90
74513;DHT22;62992;52.052;8.550;2023-04-01T22:29:05;5.60;99.90
74513;DHT22;62992;52.052;8.550;2023-04-01T22:41:06;5.50;99.90
74513;DHT22;62992;52.052;8.550;2023-04-01T22:43:55;5.50;99.90
74513;DHT22;62992;52.052;8.550;2023-04-01T22:47:08;5.50;99.90
74513;DHT22;62992;52.052;8.550;2023-04-01T22:52:53;5.50;99.90
74513;DHT22;62992;52.052;8.550;2023-04-01T22:55:40;5.50;99.90
74513;DHT22;62992;52.052;8.550;2023-04-01T22:58:35;5.50;99.90
74513;DHT22;62992;52.052;8.550;2023-04-01T23:01:29;5.50;99.90
74513;DHT22;62992;52.052;8.550;2023-04-01T23:04:16;5.50;99.90
74513;DHT22;62992;52.052;8.550;2023-04-01T23:10:15;5.50;99.90
74513;DHT22;62992;52.052;8.550;2023-04-01T23:13:02;5.40;99.90
74513;DHT22;62992;52.052;8.550;2023-04-01T23:15:47;5.40;99.90
74513;DHT22;62992;52.052;8.550;2023-04-01T23:18:45;5.40;99.90
74513;DHT22;62992;52.052;8.550;2023-04-01T23:21:43;5.30;99.90
74513;DHT22;62992;52.052;8.550;2023-04-01T23:24:33;5.20;99.90
74513;DHT22;62992;52.052;8.550;2023-04-01T23:27:31;5.30;99.90
74513;DHT22;62992;52.052;8.550;2023-04-01T23:33:30;5.30;99.90
74513;DHT22;62992;52.052;8.550;2023-04-01T23:36:15;5.20;99.90
74513;DHT22;62992;52.052;8.550;2023-04-01T23:39:04;5.10;99.90
74513;DHT22;62992;52.052;8.550;2023-04-01T23:41:50;5.00;99.90
74513;DHT22;62992;52.052;8.550;2023-04-01T23:44:36;5.00;99.90
74513;DHT22;62992;52.052;8.550;2023-04-01T23:47:29;4.90;99.90
74513;DHT22;62992;52.052;8.550;2023-04-01T23:50:17;5.00;99.90
74513;DHT22;62992;52.052;8.550;2023-04-01T23:53:10;4.90;99.90
74513;DHT22;62992;52.052;8.550;2023-04-01T23:55:57;4.90;99.90
74513;DHT22;62992;52.052;8.550;2023-04-01T23:58:49;4.90;99.90
